createdAt,value
2023-04-15T06:49:01.899Z,42.034
2023-04-15T06:56:02.012Z,42.135
2023-04-15T07:00:01.550Z,42.135
2023-04-15T07:07:01.996Z,42.11
2023-04-15T07:14:01.433Z,42.125
2023-04-15T07:21:01.563Z,42.125
2023-04-15T07:28:01.442Z,42.12
2023-04-15T07:35:01.826Z,42.145
2023-04-15T07:42:02.460Z,42.145
2023-04-15T07:49:01.775Z,42.23
2023-04-15T07:56:02.484Z,42.226
2023-04-15T08:00:02.112Z,42.226
2023-04-15T08:07:01.323Z,42.213
2023-04-15T08:14:02.106Z,42.174
2023-04-15T08:21:01.832Z,42.174
2023-04-15T08:28:02.315Z,42.127
2023-04-15T08:35:02.000Z,42.079
2023-04-15T08:42:01.993Z,42.248
2023-04-15T08:49:01.576Z,42.248
2023-04-15T08:56:01.679Z,42.344
2023-04-15T09:00:03.902Z,42.34
2023-04-15T09:07:02.162Z,42.34
2023-04-15T09:14:01.708Z,42.448
2023-04-15T09:21:01.421Z,42.516
2023-04-15T09:28:01.399Z,42.516
2023-04-15T09:35:02.283Z,42.209
2023-04-15T09:42:01.478Z,42.135
2023-04-15T09:49:01.434Z,42.071
2023-04-15T09:56:01.784Z,42.071
2023-04-15T10:00:02.399Z,41.955
2023-04-15T10:07:02.025Z,41.955
2023-04-15T10:14:02.354Z,41.944
2023-04-15T10:21:01.647Z,42.028
2023-04-15T10:28:02.032Z,41.936
2023-04-15T10:35:02.224Z,41.936
2023-04-15T10:42:01.920Z,41.858
2023-04-15T10:49:01.786Z,41.812
2023-04-15T10:56:01.844Z,41.271
2023-04-15T11:00:02.464Z,41.271
2023-04-15T11:07:01.665Z,41.33
2023-04-15T11:14:01.793Z,41.33
2023-04-15T11:21:02.015Z,41.769
2023-04-15T11:28:01.811Z,42.269
2023-04-15T11:35:02.517Z,42.75
2023-04-15T11:42:02.142Z,42.75
2023-04-15T11:49:01.702Z,42.965
2023-04-15T11:56:01.309Z,43.152
2023-04-15T12:00:01.953Z,43.152
2023-04-15T12:07:01.706Z,43.355
2023-04-15T12:14:02.437Z,43.305
2023-04-15T12:21:02.108Z,43.305
2023-04-15T12:28:02.136Z,43.379
2023-04-15T12:35:02.331Z,47.476
2023-04-15T12:42:01.570Z,47.476
2023-04-15T12:49:02.293Z,52.001
2023-04-15T12:56:02.319Z,56.801
2023-04-15T13:00:01.917Z,56.801
2023-04-15T13:07:01.898Z,57.974
2023-04-15T13:14:01.952Z,59.033
2023-04-15T13:21:02.226Z,60.634
2023-04-15T13:28:01.424Z,60.634
2023-04-15T13:35:01.829Z,63.782
2023-04-15T13:42:01.392Z,64.187
2023-04-15T13:49:01.299Z,64.187
2023-04-15T13:56:01.468Z,63.774
2023-04-15T14:00:02.266Z,63.879
2023-04-15T14:07:02.790Z,63.879
2023-04-15T14:14:02.246Z,63.449
2023-04-15T14:21:02.097Z,64.499
2023-04-15T14:28:01.773Z,64.499
2023-04-15T14:35:02.329Z,63.503
2023-04-15T14:42:01.634Z,64.17
2023-04-15T14:49:01.328Z,64.199
2023-04-15T14:56:01.477Z,64.199
2023-04-15T15:00:02.306Z,66.176
2023-04-15T15:07:02.058Z,66.176
2023-04-15T15:14:02.166Z,66.484
2023-04-15T15:21:02.007Z,67.352
2023-04-15T15:28:01.534Z,67.743
2023-04-15T15:35:02.261Z,67.743
2023-04-15T15:42:01.621Z,67.706
2023-04-15T15:49:02.143Z,69.004
2023-04-15T15:56:01.739Z,69.882
2023-04-15T16:00:11.041Z,69.882
2023-04-15T16:07:01.629Z,70.64
2023-04-15T16:14:02.112Z,70.64
2023-04-15T16:21:02.085Z,72.694
2023-04-15T16:28:11.529Z,72.095
2023-04-15T16:35:02.278Z,72.997
2023-04-15T16:42:01.425Z,72.997
2023-04-15T16:49:01.432Z,71.883
2023-04-15T16:56:02.009Z,72.094
2023-04-15T17:00:01.532Z,72.094
2023-04-15T17:07:01.616Z,72.105
2023-04-15T17:14:02.295Z,74.411
2023-04-15T17:21:01.492Z,74.411
2023-04-15T17:28:02.011Z,73.259
2023-04-15T17:35:01.699Z,74.867
2023-04-15T17:42:01.787Z,75.953
2023-04-15T17:49:01.301Z,75.953
2023-04-15T17:56:01.713Z,76.198
2023-04-15T18:00:02.495Z,76.198
2023-04-15T18:07:02.143Z,77.749
2023-04-15T18:14:01.576Z,78.38
2023-04-15T18:21:01.951Z,82.885
2023-04-15T18:28:01.995Z,82.885
2023-04-15T18:35:02.303Z,81.352
2023-04-15T18:42:01.904Z,84.164
2023-04-15T18:49:02.379Z,84.164
2023-04-15T18:56:02.187Z,84.482
2023-04-15T19:00:02.115Z,87.422
2023-04-15T19:07:01.686Z,87.422
2023-04-15T19:14:01.759Z,87.773
2023-04-15T19:21:01.889Z,89.17
2023-04-15T19:28:01.315Z,89.308
2023-04-15T19:35:02.090Z,89.308
2023-04-15T19:42:01.915Z,88.013
2023-04-15T19:49:01.726Z,87.963
2023-04-15T19:56:01.575Z,87.963
2023-04-15T20:00:02.281Z,87.967
2023-04-15T20:07:01.747Z,87.037
2023-04-15T20:14:02.114Z,87.037
2023-04-15T20:21:01.773Z,87.961
2023-04-15T20:28:02.261Z,87.6
2023-04-15T20:35:01.786Z,87.6
2023-04-15T20:42:01.947Z,89.813
2023-04-15T20:49:02.086Z,88.392
2023-04-15T20:56:02.063Z,90.196
2023-04-15T21:00:01.656Z,90.196
2023-04-15T21:07:02.221Z,89.528
2023-04-15T21:14:02.180Z,89.528
2023-04-15T21:21:02.300Z,90.132
2023-04-15T21:28:01.703Z,90.069
2023-04-15T21:35:02.444Z,88.704
2023-04-15T21:42:01.825Z,88.704
2023-04-15T21:49:01.495Z,91.089
2023-04-15T21:56:02.005Z,91.241
2023-04-15T22:00:01.593Z,91.241
2023-04-15T22:07:01.314Z,90.974
2023-04-15T22:14:01.454Z,90.951
2023-04-15T22:21:02.057Z,90.951
2023-04-15T22:28:01.830Z,90.442
2023-04-15T22:35:01.567Z,90.691
2023-04-15T22:42:02.172Z,89.689
2023-04-15T22:49:01.697Z,89.689
2023-04-15T22:56:01.477Z,90.532
2023-04-15T23:00:02.040Z,90.532
2023-04-15T23:07:01.452Z,90.326
2023-04-15T23:14:01.892Z,90.19
2023-04-15T23:21:02.256Z,90.568
2023-04-15T23:28:01.356Z,90.568
2023-04-15T23:35:01.696Z,90.588
2023-04-15T23:42:01.922Z,91.413
2023-04-15T23:49:02.157Z,90.614
2023-04-15T23:56:01.951Z,90.614
